Station Historical Data from High Park Village Toronto
 
Daily Summary for November 20, 2017 Units:  Metric    English   Both
« Previous Day
Next Day »
Daily Weekly Monthly Yearly Custom
  Current: High: Low: Average:
Temperature: 2.8 °C 2.8 °C -0.6 °C 0.5 °C
Dew Point: -2 °C -2 °C -5.6 °C -4.6 °C
Humidity: 71% 73% 66% 69%
Wind Speed: 0km/h 9.7km/h 0km/h 2.6km/h
Wind Gust: 0km/h 9.7km/h - -
WindCalm - - South
Pressure: 1013.4 hPa 1014.1 hPa 1010.4 hPa -
Precipitation: 0 mm      
Historical Graphs
 
 
Tabular Data for November 20, 2017
Time Temperature Dew Point Pressure Wind Wind Speed Wind Gust Humidity Rainfall Rate (Hourly) solar Conditions
00:08 -0.6 °C -4.9 °C 1010.4 hPa NNW 3.7 km/h 3.7 km/h 73% 0 mm 0.0 W/m2
00:18 -0.6 °C -4.8 °C 1010.4 hPa Calm     73% 0 mm 0.0 W/m2
00:23 -0.5 °C -4.8 °C 1010.4 hPa Calm     73% 0 mm 0.0 W/m2
00:33 -0.4 °C -4.7 °C 1010.7 hPa Calm     73% 0 mm 0.0 W/m2
00:38 -0.4 °C -4.7 °C 1010.7 hPa WSW 1.9 km/h 1.9 km/h 73% 0 mm 0.0 W/m2
00:43 -0.3 °C -4.6 °C 1010.7 hPa SSW 1.9 km/h 1.9 km/h 73% 0 mm 0.0 W/m2
00:58 -0.3 °C -4.7 °C 1010.7 hPa SSE 5.6 km/h 5.6 km/h 72% 0 mm 0.0 W/m2
01:03 -0.3 °C -4.7 °C 1010.7 hPa SSE 1.9 km/h 1.9 km/h 72% 0 mm 0.0 W/m2
01:08 -0.2 °C -4.7 °C 1010.7 hPa ESE 1.9 km/h   72% 0 mm 0.0 W/m2
01:13 -0.2 °C -4.6 °C 1010.7 hPa SSW 3.7 km/h 3.7 km/h 72% 0 mm 0.0 W/m2
01:18 -0.2 °C -4.8 °C 1010.7 hPa North 3.7 km/h 3.7 km/h 71% 0 mm 0.0 W/m2
01:22 -0.2 °C -4.8 °C 1010.7 hPa NNE 3.7 km/h 3.7 km/h 71% 0 mm 0.0 W/m2
01:32 -0.1 °C -4.9 °C 1010.7 hPa North 9.7 km/h 9.7 km/h 70% 0 mm 0.0 W/m2
01:42 -0.1 °C -4.9 °C 1010.7 hPa South 5.6 km/h 5.6 km/h 70% 0 mm 0.0 W/m2
01:47 -0.1 °C -4.8 °C 1010.7 hPa SSE 5.6 km/h 5.6 km/h 71% 0 mm 0.0 W/m2
01:52 -0.1 °C -4.8 °C 1010.7 hPa SE 3.7 km/h 3.7 km/h 71% 0 mm 0.0 W/m2
01:57 -0.1 °C -4.7 °C 1011.1 hPa ESE 1.9 km/h 1.9 km/h 71% 0 mm 0.0 W/m2
02:02 -0.1 °C -4.7 °C 1011.1 hPa NNE 1.9 km/h   71% 0 mm 0.0 W/m2
02:04 -0.1 °C -4.7 °C 1011.1 hPa Calm     71% 0 mm 0.0 W/m2
02:09 -0.1 °C -4.7 °C 1011.1 hPa NNW 3.7 km/h 3.7 km/h 71% 0 mm 0.0 W/m2
02:14 0 °C -4.7 °C 1011.4 hPa WNW 1.9 km/h   71% 0 mm 0.0 W/m2
02:24 -0.1 °C -4.7 °C 1011.4 hPa ESE 3.7 km/h 3.7 km/h 71% 0 mm 0.0 W/m2
02:29 -0.1 °C -4.7 °C 1011.4 hPa NE 5.6 km/h 5.6 km/h 71% 0 mm 0.0 W/m2
02:34 -0.1 °C -4.8 °C 1011.4 hPa SSW 1.6 km/h 1.6 km/h 71% 0 mm 0.0 W/m2
02:44 -0.2 °C -5 °C 1011.7 hPa NNW 1.9 km/h 1.9 km/h 70% 0 mm 0.0 W/m2
02:49 -0.2 °C -4.8 °C 1011.7 hPa NNW 3.7 km/h 3.7 km/h 71% 0 mm 0.0 W/m2
02:54 -0.2 °C -4.8 °C 1011.7 hPa ESE 1.6 km/h   71% 0 mm 0.0 W/m2
02:59 -0.2 °C -4.8 °C 1012.1 hPa North 5.6 km/h 5.6 km/h 71% 0 mm 0.0 W/m2
03:04 -0.2 °C -5.1 °C 1012.1 hPa Calm     70% 0 mm 0.0 W/m2
03:14 -0.2 °C -5.1 °C 1012.1 hPa SSE 3.7 km/h 3.7 km/h 70% 0 mm 0.0 W/m2
03:19 -0.2 °C -5.1 °C 1012.1 hPa NE 1.9 km/h 1.9 km/h 70% 0 mm 0.0 W/m2
03:29 -0.3 °C -5.1 °C 1011.7 hPa South 5.6 km/h 5.6 km/h 70% 0 mm 0.0 W/m2
03:39 -0.3 °C -5.3 °C 1011.7 hPa East 7.4 km/h 7.4 km/h 69% 0 mm 0.0 W/m2
03:44 -0.3 °C -5.3 °C 1011.7 hPa ESE 1.9 km/h 1.9 km/h 69% 0 mm 0.0 W/m2
03:53 -0.3 °C -5.3 °C 1011.7 hPa SSE 5.6 km/h 5.6 km/h 69% 0 mm 0.0 W/m2
03:58 -0.3 °C -5.6 °C 1012.1 hPa SE 3.7 km/h 3.7 km/h 68% 0 mm 0.0 W/m2
04:03 -0.3 °C -5.5 °C 1012.1 hPa SE 1.9 km/h 1.9 km/h 68% 0 mm 0.0 W/m2
04:18 -0.2 °C -5.6 °C 1011.7 hPa South 3.2 km/h 3.2 km/h 67% 0 mm 0.0 W/m2
04:23 -0.1 °C -5.5 °C 1012.1 hPa WNW 1.9 km/h 1.9 km/h 67% 0 mm 0.0 W/m2
04:38 0 °C -5.4 °C 1012.1 hPa NE 3.7 km/h   67% 0 mm 0.0 W/m2
04:53 0 °C -5.4 °C 1012.1 hPa WSW 1.9 km/h 1.9 km/h 67% 0 mm 0.0 W/m2
04:54 0 °C -5.4 °C 1012.1 hPa North 3.7 km/h 3.7 km/h 67% 0 mm 0.0 W/m2
04:59 0 °C -5.4 °C 1012.1 hPa NNE 3.7 km/h   67% 0 mm 0.0 W/m2
05:04 -0.1 °C -5.4 °C 1012.1 hPa NE 1.9 km/h 1.9 km/h 67% 0 mm 0.0 W/m2
05:09 -0.1 °C -5.3 °C 1012.1 hPa South 1.9 km/h 1.9 km/h 68% 0 mm 0.0 W/m2
05:14 -0.1 °C -5.3 °C 1012.4 hPa SE 1.9 km/h 1.9 km/h 68% 0 mm 0.0 W/m2
05:24 -0.1 °C -5.3 °C 1012.4 hPa Calm     68% 0 mm 0.0 W/m2
05:29 0 °C -5.2 °C 1012.4 hPa SSE 1.9 km/h 1.9 km/h 68% 0 mm 0.0 W/m2
05:39 0 °C -5.2 °C 1012.4 hPa Calm     68% 0 mm 0.0 W/m2
05:44 0.1 °C -5.2 °C 1012.4 hPa SSE 1.9 km/h   68% 0 mm 0.0 W/m2
05:49 0.1 °C -5.2 °C 1012.4 hPa Calm     68% 0 mm 0.0 W/m2
05:54 0.1 °C -5.1 °C 1012.4 hPa SSE 1.9 km/h 1.9 km/h 68% 0 mm 0.0 W/m2
06:14 0.2 °C -5.2 °C 1012.8 hPa SSE 1.9 km/h   67% 0 mm 0.0 W/m2
06:24 0.2 °C -5.2 °C 1012.8 hPa Calm     67% 0 mm 0.0 W/m2
06:29 0.2 °C -5.2 °C 1012.8 hPa SW 3.7 km/h 3.7 km/h 67% 0 mm 0.0 W/m2
06:34 0.3 °C -5.2 °C 1013.1 hPa Calm     67% 0 mm 0.0 W/m2
06:39 0.3 °C -5.1 °C 1013.1 hPa Calm     67% 0 mm 0.0 W/m2
06:49 0.4 °C -5 °C 1013.1 hPa SSW 1.6 km/h   67% 0 mm 0.0 W/m2
06:54 0.5 °C -4.9 °C 1013.1 hPa SSE 1.9 km/h 1.9 km/h 67% 0 mm 0.0 W/m2
06:59 0.5 °C -4.9 °C 1013.1 hPa South 1.9 km/h 1.9 km/h 67% 0 mm 0.0 W/m2
07:09 0.6 °C -5.1 °C 1013.1 hPa SSE 1.9 km/h 1.9 km/h 66% 0 mm 0.0 W/m2 CLR
07:14 0.5 °C -4.9 °C 1013.1 hPa NNW 3.7 km/h 3.7 km/h 67% 0 mm 0.0 W/m2 CLR
07:19 0.6 °C -5.1 °C 1013.4 hPa SSE 1.9 km/h 1.9 km/h 66% 0 mm 0.0 W/m2 CLR
07:24 0.6 °C -4.9 °C 1013.1 hPa South 3.7 km/h 3.7 km/h 67% 0 mm 0.0 W/m2 CLR
07:29 0.6 °C -4.8 °C 1013.1 hPa Calm     67% 0 mm 0.0 W/m2 CLR
07:39 0.6 °C -4.9 °C 1013.4 hPa SSW 3.7 km/h 3.7 km/h 67% 0 mm 0.0 W/m2 CLR
07:44 0.6 °C -4.8 °C 1013.4 hPa South 3.7 km/h 3.7 km/h 67% 0 mm 0.0 W/m2 CLR
07:49 0.6 °C -4.9 °C 1013.4 hPa SSW 5.6 km/h 5.6 km/h 67% 0 mm 0.0 W/m2 CLR
08:00 0.4 °C -5.1 °C 1013.4 hPa South 6.4 km/h 6.4 km/h 67% 0 mm 0.0 W/m2 CLR
08:05 0.3 °C -4.9 °C 1013.4 hPa SSW 9.3 km/h 9.3 km/h 68% 0 mm 0.0 W/m2 CLR
08:10 0.3 °C -4.9 °C 1013.4 hPa South 1.9 km/h 1.9 km/h 68% 0 mm 5.0 W/m2 CLR
08:15 0.3 °C -4.9 °C 1013.4 hPa South 1.9 km/h   68% 0 mm 0.0 W/m2 CLR
08:20 0.2 °C -5.1 °C 1013.8 hPa SSE 1.9 km/h 1.9 km/h 68% 0 mm 7.0 W/m2 CLR
08:25 0.2 °C -4.9 °C 1013.8 hPa SSE 1.9 km/h 1.9 km/h 69% 0 mm 7.0 W/m2 CLR
08:30 0.2 °C -4.9 °C 1013.8 hPa Calm   0.3 km/h 69% 0 mm 11.0 W/m2 CLR
08:40 0.2 °C -4.9 °C 1013.8 hPa North 1.9 km/h 1.9 km/h 69% 0 mm 11.0 W/m2 CLR
08:45 0.2 °C -4.6 °C 1013.8 hPa Calm   0.3 km/h 70% 0 mm 14.0 W/m2 CLR
08:50 0.2 °C -4.6 °C 1013.8 hPa SE 3.7 km/h 3.7 km/h 70% 0 mm 12.0 W/m2 CLR
08:55 0.2 °C -4.6 °C 1013.8 hPa ENE 1.9 km/h   70% 0 mm 14.0 W/m2 CLR
09:00 0.2 °C -4.6 °C 1013.8 hPa ENE 1.9 km/h   70% 0 mm 14.0 W/m2 CLR
09:05 0.3 °C -4.6 °C 1014.1 hPa Calm   0.3 km/h 70% 0 mm 16.0 W/m2 OVC
09:09 0.3 °C -4.6 °C 1013.8 hPa Calm     70% 0 mm 16.0 W/m2 OVC
09:14 0.3 °C -4.5 °C 1014.1 hPa Calm     70% 0 mm 18.0 W/m2 OVC
09:19 0.4 °C -4.4 °C 1014.1 hPa SSE 1.9 km/h   70% 0 mm 18.0 W/m2 OVC
09:24 0.5 °C -4.3 °C 1014.1 hPa SE 1.6 km/h   70% 0 mm 19.0 W/m2 OVC
09:29 0.6 °C -4.3 °C 1014.1 hPa SE 3.7 km/h   70% 0 mm 21.0 W/m2 OVC
09:34 0.7 °C -4.2 °C 1014.1 hPa SSE 1.9 km/h   70% 0 mm 19.0 W/m2 OVC
09:39 0.8 °C -4.3 °C 1014.1 hPa SE 1.9 km/h   69% 0 mm 30.0 W/m2 OVC
09:44 0.9 °C -4.2 °C 1014.1 hPa SSE 1.9 km/h 1.9 km/h 69% 0 mm 30.0 W/m2 OVC
09:49 1 °C -4.1 °C 1014.1 hPa South 3.2 km/h 3.2 km/h 69% 0 mm 46.0 W/m2 OVC
09:53 1.1 °C -4 °C 1014.1 hPa Calm     69% 0 mm 37.0 W/m2 OVC
09:58 1.2 °C -3.8 °C 1014.1 hPa Calm     69% 0 mm 44.0 W/m2 OVC
10:03 1.3 °C -3.9 °C 1014.1 hPa NNW 3.7 km/h 3.7 km/h 68% 0 mm 32.0 W/m2 OVC
10:23 1.8 °C -3.7 °C 1014.1 hPa South 6.4 km/h 6.4 km/h 67% 0 mm 32.0 W/m2 OVC
10:28 1.9 °C -3.8 °C 1013.8 hPa SSE 5.6 km/h 5.6 km/h 66% 0 mm 32.0 W/m2 OVC
10:38 2.1 °C -3.7 °C 1014.1 hPa SE 3.7 km/h 3.7 km/h 66% 0 mm 49.0 W/m2 OVC
10:43 2.1 °C -3.7 °C 1014.1 hPa South 3.7 km/h 3.7 km/h 66% 0 mm 32.0 W/m2 OVC
10:48 2.1 °C -3.6 °C 1014.1 hPa South 4.8 km/h 4.8 km/h 66% 0 mm 35.0 W/m2 OVC
10:53 2.2 °C -3.3 °C 1014.1 hPa South 5.6 km/h 5.6 km/h 67% 0 mm 35.0 W/m2 OVC
10:58 2.2 °C -3.3 °C 1014.1 hPa SSW 3.7 km/h 3.7 km/h 67% 0 mm 37.0 W/m2 OVC
11:13 2.4 °C -3.1 °C 1014.1 hPa Calm     67% 0 mm 18.0 W/m2 OVC
11:23 2.4 °C -3.1 °C 1014.1 hPa East 1.6 km/h 1.6 km/h 67% 0 mm 18.0 W/m2 OVC
11:28 2.3 °C -3 °C 1014.1 hPa SSE 1.9 km/h 1.9 km/h 68% 0 mm 26.0 W/m2 OVC
11:38 2.3 °C -3 °C 1013.8 hPa NNW 3.7 km/h 3.7 km/h 68% 0 mm 16.0 W/m2 OVC
11:43 2.3 °C -2.8 °C 1013.8 hPa Calm     69% 0 mm 19.0 W/m2 OVC
11:48 2.4 °C -2.7 °C 1013.8 hPa South 1.9 km/h 1.9 km/h 69% 0 mm 32.0 W/m2 OVC
11:58 2.7 °C -2.4 °C 1013.4 hPa Calm     69% 0 mm 32.0 W/m2 OVC
12:03 2.7 °C -2.4 °C 1013.8 hPa South 1.9 km/h 1.9 km/h 69% 0 mm 23.0 W/m2 OVC
12:08 2.8 °C -2.3 °C 1013.4 hPa NNW 3.7 km/h   69% 0 mm 25.0 W/m2 OVC
12:13 2.8 °C -2.2 °C 1013.4 hPa ESE 3.7 km/h 3.7 km/h 70% 0 mm 25.0 W/m2 OVC
12:23 2.8 °C -2.2 °C 1013.4 hPa North 1.9 km/h 1.9 km/h 70% 0 mm 28.0 W/m2 OVC
12:28 2.8 °C -2.2 °C 1013.4 hPa SE 1.9 km/h   70% 0 mm 26.0 W/m2 OVC
12:33 2.8 °C -2 °C 1013.4 hPa Calm     71% 0 mm 30.0 W/m2 OVC
Historical Data from High Park Village Toronto since August 2007
Compliments of Weather Underground - 2.25 mb